createdAt,value
2022-08-05T00:01:35.707Z,93.60
2022-08-05T00:04:15.390Z,83.40
2022-08-05T00:06:43.161Z,83.80
2022-08-05T00:09:13.194Z,89.80
2022-08-05T00:11:48.296Z,91.20
2022-08-05T00:14:17.042Z,92.80
2022-08-05T00:16:52.908Z,93.30
2022-08-05T00:19:24.945Z,91.90
2022-08-05T00:21:59.807Z,87.40
2022-08-05T00:24:31.033Z,97.40
2022-08-05T00:26:58.825Z,96.80
2022-08-05T00:29:26.144Z,94.70
2022-08-05T00:32:11.134Z,97.90
2022-08-05T00:34:54.613Z,96.30
2022-08-05T00:37:51.158Z,94.80
2022-08-05T00:40:14.427Z,96.20
2022-08-05T00:42:49.137Z,97.10
2022-08-05T00:45:16.720Z,96.50
2022-08-05T00:48:04.933Z,99.90
2022-08-05T00:50:32.166Z,99.90
2022-08-05T00:52:59.062Z,99.90
2022-08-05T00:55:42.351Z,99.90
2022-08-05T00:58:11.049Z,99.90
2022-08-05T01:00:39.531Z,99.90
2022-08-05T01:03:07.623Z,99.90
2022-08-05T01:05:35.163Z,99.90
2022-08-05T01:08:42.277Z,99.90
2022-08-05T01:10:54.046Z,99.90
2022-08-05T01:13:58.421Z,97.40
2022-08-05T01:16:27.690Z,99.90
2022-08-05T01:19:00.698Z,99.90
2022-08-05T01:21:42.506Z,99.90
2022-08-05T01:24:30.830Z,99.90
2022-08-05T01:27:22.161Z,99.90
2022-08-05T01:29:50.357Z,99.90
2022-08-05T01:32:20.865Z,99.90
2022-08-05T01:34:48.714Z,99.90
2022-08-05T01:37:20.205Z,99.90
2022-08-05T01:39:54.824Z,99.90
2022-08-05T01:42:26.552Z,99.90
2022-08-05T01:44:54.798Z,99.90
2022-08-05T01:47:22.177Z,99.90
2022-08-05T01:50:01.567Z,99.90
2022-08-05T01:52:29.701Z,99.90
2022-08-05T01:54:58.624Z,99.90
2022-08-05T01:58:12.661Z,99.90
2022-08-05T02:00:15.675Z,99.90
2022-08-05T02:02:46.472Z,99.90
2022-08-05T02:05:23.469Z,99.90
2022-08-05T02:08:00.006Z,99.90
2022-08-05T02:10:28.865Z,99.90
2022-08-05T02:13:05.117Z,99.90
2022-08-05T02:15:50.249Z,99.90
2022-08-05T02:18:34.883Z,99.90
2022-08-05T02:21:14.830Z,99.90
2022-08-05T02:23:43.953Z,99.90
2022-08-05T02:26:13.594Z,99.90
2022-08-05T02:28:44.584Z,99.90
2022-08-05T02:31:21.111Z,99.90
2022-08-05T02:33:57.634Z,99.90
2022-08-05T02:36:27.588Z,99.90
2022-08-05T02:38:55.642Z,99.90
2022-08-05T02:41:28.969Z,99.90
2022-08-05T02:44:12.193Z,99.90
2022-08-05T02:46:53.455Z,99.90
2022-08-05T02:49:36.576Z,99.90
2022-08-05T02:52:09.200Z,99.90
2022-08-05T02:54:37.668Z,99.90
2022-08-05T02:58:09.337Z,99.90
2022-08-05T02:59:57.800Z,99.90
2022-08-05T03:02:28.547Z,99.90
2022-08-05T03:04:56.603Z,99.90
2022-08-05T03:07:40.593Z,99.90
2022-08-05T03:10:10.525Z,99.90
2022-08-05T03:12:40.256Z,99.90
2022-08-05T03:15:09.334Z,99.90
2022-08-05T03:17:41.779Z,99.90
2022-08-05T03:20:09.201Z,99.90
2022-08-05T03:22:37.147Z,99.90
2022-08-05T03:25:11.688Z,99.90
2022-08-05T03:28:00.084Z,99.90
2022-08-05T03:30:30.306Z,99.90
2022-08-05T03:33:06.187Z,99.90
2022-08-05T03:35:41.746Z,99.90
2022-08-05T03:38:11.008Z,99.90
2022-08-05T03:40:41.413Z,99.90
2022-08-05T03:43:59.273Z,99.90
2022-08-05T03:45:59.329Z,99.90
2022-08-05T03:48:29.027Z,99.90
2022-08-05T03:52:37.321Z,99.90
2022-08-05T03:55:53.870Z,99.90
2022-08-05T03:57:02.353Z,99.90
2022-08-05T03:59:55.030Z,99.90
2022-08-05T04:02:39.193Z,99.90
2022-08-05T04:05:14.874Z,99.90
2022-08-05T04:07:57.760Z,99.90
2022-08-05T04:10:27.746Z,99.90
2022-08-05T04:12:55.431Z,99.90
2022-08-05T04:15:25.726Z,97.40
2022-08-05T04:17:57.119Z,94.90
2022-08-05T04:20:24.282Z,92.10
2022-08-05T04:22:50.973Z,90.30
2022-08-05T04:25:17.809Z,95.00
2022-08-05T04:27:58.064Z,88.90
2022-08-05T04:30:26.410Z,85.30
2022-08-05T04:32:53.554Z,78.10
2022-08-05T04:35:20.359Z,76.20
2022-08-05T04:38:02.452Z,74.00
2022-08-05T04:40:36.896Z,66.70
2022-08-05T04:43:04.065Z,51.40
2022-08-05T04:45:48.910Z,57.80
2022-08-05T04:48:27.273Z,57.50
2022-08-05T04:51:03.287Z,51.40
2022-08-05T04:53:38.795Z,55.30
2022-08-05T04:56:32.851Z,45.00
2022-08-05T04:58:53.909Z,42.20
2022-08-05T05:02:05.599Z,46.80
2022-08-05T05:04:07.401Z,50.00
2022-08-05T05:06:39.694Z,43.40
2022-08-05T05:09:20.446Z,45.30
2022-08-05T05:11:54.490Z,43.00
2022-08-05T05:14:28.023Z,39.90
2022-08-05T05:16:59.738Z,37.70
2022-08-05T05:19:36.507Z,29.90
2022-08-05T05:22:23.489Z,29.30
2022-08-05T05:24:57.277Z,34.30
2022-08-05T05:27:41.691Z,30.20
2022-08-05T05:30:29.113Z,15.60
2022-08-05T05:32:57.002Z,16.10
2022-08-05T05:35:29.131Z,24.90
2022-08-05T05:38:03.262Z,24.20
2022-08-05T05:40:32.416Z,27.60
2022-08-05T05:43:02.069Z,25.90
2022-08-05T05:45:29.327Z,29.50
2022-08-05T05:48:05.481Z,29.30
2022-08-05T05:50:32.739Z,27.30
2022-08-05T05:53:00.835Z,25.20
2022-08-05T05:55:52.126Z,28.00
2022-08-05T05:58:14.260Z,26.00
2022-08-05T06:00:40.951Z,30.00
2022-08-05T06:03:40.517Z,21.10
2022-08-05T06:06:00.038Z,24.00
2022-08-05T06:08:32.611Z,23.60
2022-08-05T06:11:00.185Z,19.30
2022-08-05T06:13:26.988Z,15.90
2022-08-05T06:16:28.285Z,20.10
2022-08-05T06:18:53.959Z,16.80
2022-08-05T06:21:20.755Z,11.20
2022-08-05T06:23:49.846Z,9.20
2022-08-05T06:26:21.231Z,10.60
2022-08-05T06:28:48.451Z,6.70
2022-08-05T06:31:18.285Z,6.30
2022-08-05T06:34:06.242Z,1.00
2022-08-05T06:36:53.698Z,1.00
2022-08-05T06:39:21.711Z,1.00
2022-08-05T06:41:49.624Z,1.00
2022-08-05T06:44:18.865Z,1.00
2022-08-05T06:46:50.885Z,1.00
2022-08-05T06:49:18.840Z,1.00
2022-08-05T06:51:48.448Z,1.00
2022-08-05T06:54:19.025Z,1.00
2022-08-05T06:56:54.994Z,1.00
2022-08-05T06:59:38.526Z,1.00
2022-08-05T07:02:08.965Z,1.00
2022-08-05T07:04:35.949Z,1.00
2022-08-05T07:07:03.525Z,1.00
2022-08-05T07:09:37.344Z,1.00
2022-08-05T07:12:07.863Z,1.00
2022-08-05T07:14:54.408Z,1.00
2022-08-05T07:17:58.471Z,1.00
2022-08-05T07:20:32.197Z,1.00
2022-08-05T07:22:54.836Z,1.00
2022-08-05T07:25:56.134Z,1.00
2022-08-05T07:28:11.712Z,1.00
2022-08-05T07:30:44.425Z,1.00
2022-08-05T07:33:17.419Z,1.00
2022-08-05T07:36:01.939Z,1.00
2022-08-05T07:38:35.359Z,1.00
2022-08-05T07:42:07.316Z,1.00
2022-08-05T07:43:59.623Z,1.00
2022-08-05T07:46:27.404Z,1.00
2022-08-05T07:49:02.529Z,1.00
2022-08-05T07:51:36.994Z,1.00
2022-08-05T07:54:08.409Z,1.00
2022-08-05T07:56:39.325Z,1.00
2022-08-05T07:59:39.037Z,1.00
2022-08-05T08:02:16.232Z,1.00
2022-08-05T08:04:47.710Z,1.00
2022-08-05T08:07:16.002Z,1.00
2022-08-05T08:09:44.487Z,1.00
2022-08-05T08:12:35.236Z,1.00
2022-08-05T08:15:02.567Z,99.90
2022-08-05T08:17:30.822Z,69.00
2022-08-05T08:20:21.382Z,1.00
2022-08-05T08:22:50.109Z,1.00
2022-08-05T08:25:18.225Z,1.00
2022-08-05T08:27:54.240Z,1.00
2022-08-05T08:30:32.821Z,1.00
2022-08-05T08:33:13.599Z,1.00
2022-08-05T08:35:53.790Z,1.00
2022-08-05T08:38:35.631Z,1.00
2022-08-05T08:41:08.573Z,1.00
2022-08-05T08:45:21.153Z,1.00
2022-08-05T08:46:26.314Z,1.00
2022-08-05T08:49:04.938Z,1.00
2022-08-05T08:52:05.779Z,1.00
2022-08-05T08:54:27.412Z,1.00
2022-08-05T08:56:54.320Z,1.00
2022-08-05T08:59:27.400Z,1.00
2022-08-05T09:02:00.945Z,1.00
2022-08-05T09:04:30.542Z,1.00
2022-08-05T09:06:57.836Z,1.00
2022-08-05T09:09:25.961Z,1.00
2022-08-05T09:12:19.798Z,1.00
2022-08-05T09:14:57.403Z,1.00
2022-08-05T09:17:42.899Z,1.00
2022-08-05T09:20:13.034Z,1.00
2022-08-05T09:23:07.513Z,1.00
2022-08-05T09:26:02.278Z,1.00
2022-08-05T09:28:32.477Z,1.00
2022-08-05T09:32:38.697Z,1.00
2022-08-05T09:33:59.485Z,1.00
2022-08-05T09:36:55.228Z,1.00
2022-08-05T09:39:39.196Z,1.00
2022-08-05T09:42:17.763Z,1.00
2022-08-05T09:44:52.557Z,1.00
2022-08-05T09:47:24.148Z,1.00
2022-08-05T09:50:02.094Z,1.00
2022-08-05T09:52:31.310Z,1.00
2022-08-05T09:55:55.070Z,1.00
2022-08-05T09:57:54.534Z,1.00
2022-08-05T10:00:26.408Z,1.00
2022-08-05T10:02:54.726Z,1.00
2022-08-05T10:05:26.734Z,1.00
2022-08-05T10:08:34.630Z,1.00
2022-08-05T10:10:44.150Z,1.00
2022-08-05T10:13:10.940Z,10.50
2022-08-05T10:15:41.656Z,1.00
2022-08-05T10:18:22.519Z,1.00
2022-08-05T10:20:51.240Z,1.00
2022-08-05T10:23:56.411Z,1.00
2022-08-05T10:26:15.115Z,1.00
2022-08-05T10:28:46.487Z,1.00
2022-08-05T10:32:48.473Z,1.00
2022-08-05T10:34:02.177Z,1.00
2022-08-05T10:36:29.655Z,1.00
2022-08-05T10:38:59.381Z,1.00
2022-08-05T10:41:45.200Z,1.00
2022-08-05T10:44:17.117Z,1.00
2022-08-05T10:46:45.225Z,1.00
2022-08-05T10:49:16.927Z,1.00
2022-08-05T10:51:48.650Z,1.00
2022-08-05T10:54:46.926Z,1.00
2022-08-05T10:57:26.242Z,1.00
2022-08-05T11:00:19.648Z,1.00
2022-08-05T11:02:58.986Z,1.00
2022-08-05T11:06:03.808Z,1.00
2022-08-05T11:08:39.401Z,1.00
2022-08-05T11:11:25.142Z,1.00
2022-08-05T11:14:11.401Z,1.00
2022-08-05T11:16:57.137Z,1.00
2022-08-05T11:20:16.459Z,1.00
2022-08-05T11:22:34.691Z,1.00
2022-08-05T11:26:04.963Z,1.00
2022-08-05T11:28:11.705Z,1.00
2022-08-05T11:30:58.322Z,1.00
2022-08-05T11:33:44.190Z,99.90
2022-08-05T11:36:16.960Z,99.90
2022-08-05T11:39:01.686Z,1.00
2022-08-05T11:41:54.709Z,1.00
2022-08-05T11:44:40.834Z,1.00
2022-08-05T11:47:11.148Z,1.00
2022-08-05T11:49:43.070Z,1.00
2022-08-05T11:52:11.941Z,99.90
2022-08-05T11:54:40.605Z,99.90
2022-08-05T11:57:24.859Z,99.90
2022-08-05T11:59:53.412Z,99.90
2022-08-05T12:02:31.751Z,99.90
2022-08-05T12:05:00.792Z,99.90
2022-08-05T12:08:07.584Z,99.90
2022-08-05T12:10:20.942Z,99.90
2022-08-05T12:12:58.371Z,99.90
2022-08-05T12:15:33.213Z,99.90
2022-08-05T12:18:10.975Z,99.90
2022-08-05T12:20:39.391Z,99.90
2022-08-05T12:23:08.058Z,99.90
2022-08-05T12:25:48.848Z,99.90
2022-08-05T12:28:30.954Z,99.90
2022-08-05T12:31:02.446Z,99.90
2022-08-05T12:33:36.486Z,99.90
2022-08-05T12:36:07.880Z,1.00
2022-08-05T12:38:41.610Z,99.90
2022-08-05T12:41:13.213Z,99.90
2022-08-05T12:43:57.572Z,99.90
2022-08-05T12:46:29.233Z,99.90
2022-08-05T12:49:15.574Z,99.90
2022-08-05T12:52:12.602Z,99.90
2022-08-05T12:54:36.713Z,99.90
2022-08-05T12:57:09.531Z,99.90
2022-08-05T13:00:08.703Z,99.90
2022-08-05T13:02:30.981Z,99.90
2022-08-05T13:04:57.852Z,99.90
2022-08-05T13:07:57.458Z,99.90
2022-08-05T13:10:19.556Z,99.90
2022-08-05T13:12:57.433Z,99.90
2022-08-05T13:15:41.829Z,99.90
2022-08-05T13:18:20.728Z,99.90
2022-08-05T13:20:49.305Z,99.90
2022-08-05T13:23:18.067Z,99.90
2022-08-05T13:25:51.651Z,99.90
2022-08-05T13:28:25.885Z,99.90
2022-08-05T13:30:53.348Z,99.90
2022-08-05T13:34:23.559Z,99.90
2022-08-05T13:36:09.306Z,99.90
2022-08-05T13:38:42.512Z,99.90
2022-08-05T13:41:12.934Z,99.90
2022-08-05T13:43:45.410Z,1.00
2022-08-05T13:47:01.897Z,99.90
2022-08-05T13:49:12.584Z,99.90
2022-08-05T13:51:41.584Z,99.90
2022-08-05T13:54:15.036Z,99.90
2022-08-05T13:56:45.389Z,99.90
2022-08-05T13:59:24.468Z,99.90
2022-08-05T14:02:00.055Z,99.90
2022-08-05T14:05:04.704Z,99.90
2022-08-05T14:07:59.995Z,99.90
2022-08-05T14:10:31.096Z,99.90
2022-08-05T14:12:58.383Z,99.90
2022-08-05T14:16:07.547Z,99.90
2022-08-05T14:18:15.142Z,99.90
2022-08-05T14:20:48.834Z,99.90
2022-08-05T14:23:24.076Z,99.90
2022-08-05T14:25:58.785Z,99.90
2022-08-05T14:28:30.090Z,99.90
2022-08-05T14:30:57.728Z,99.90
2022-08-05T14:33:24.589Z,99.90
2022-08-05T14:35:53.981Z,99.90
2022-08-05T14:38:32.683Z,99.90
2022-08-05T14:41:05.768Z,99.90
2022-08-05T14:43:59.570Z,99.90
2022-08-05T14:46:28.423Z,99.90
2022-08-05T14:48:57.831Z,99.90
2022-08-05T15:04:20.680Z,1.00
2022-08-05T15:06:52.251Z,99.90
2022-08-05T15:09:51.645Z,99.90
2022-08-05T15:12:06.758Z,99.90
2022-08-05T15:14:48.388Z,99.90
2022-08-05T15:17:46.058Z,99.90
2022-08-05T15:20:15.657Z,99.90
2022-08-05T15:22:45.507Z,99.90
2022-08-05T15:25:14.303Z,99.90
2022-08-05T15:27:42.672Z,99.90
2022-08-05T15:30:10.950Z,99.90
2022-08-05T15:32:40.961Z,99.90
2022-08-05T15:35:10.378Z,99.90
2022-08-05T15:38:33.291Z,99.90
2022-08-05T15:41:01.898Z,99.90
2022-08-05T15:43:20.051Z,99.90
2022-08-05T15:45:48.030Z,99.90
2022-08-05T15:48:28.297Z,99.90
2022-08-05T15:50:56.434Z,99.90
2022-08-05T15:53:26.486Z,99.90
2022-08-05T15:56:02.182Z,62.70
2022-08-05T15:58:35.401Z,99.90
2022-08-05T16:01:17.321Z,99.90
2022-08-05T16:03:45.404Z,1.00
2022-08-05T16:06:15.834Z,4.40
2022-08-05T16:08:47.763Z,99.90
2022-08-05T16:11:17.157Z,83.00
2022-08-05T16:13:44.118Z,1.00
2022-08-05T16:16:12.203Z,57.20
2022-08-05T16:18:51.951Z,99.90
2022-08-05T16:21:19.271Z,24.80
2022-08-05T16:23:53.717Z,99.90
2022-08-05T16:26:26.404Z,99.90
2022-08-05T16:28:54.395Z,99.90
2022-08-05T16:31:21.691Z,99.90
2022-08-05T16:33:49.013Z,49.40
2022-08-05T16:36:20.541Z,47.40
2022-08-05T16:38:54.842Z,99.90
2022-08-05T16:42:14.009Z,99.90
2022-08-05T16:44:09.546Z,99.90
2022-08-05T16:46:36.460Z,80.40
2022-08-05T16:49:09.082Z,99.90
2022-08-05T16:51:50.379Z,99.90
2022-08-05T16:54:23.984Z,99.90
2022-08-05T16:56:55.482Z,99.90
2022-08-05T16:59:22.818Z,99.90
2022-08-05T17:01:53.028Z,99.90
2022-08-05T17:04:23.708Z,99.90
2022-08-05T17:06:54.191Z,99.90
2022-08-05T17:09:21.179Z,99.90
2022-08-05T17:11:51.552Z,99.90
2022-08-05T17:14:22.313Z,99.90
2022-08-05T17:17:02.622Z,99.90
2022-08-05T17:19:29.432Z,88.10
2022-08-05T17:21:57.349Z,99.90
2022-08-05T17:24:34.950Z,99.90
2022-08-05T17:27:05.682Z,1.00
2022-08-05T17:29:34.110Z,99.90
2022-08-05T17:32:08.502Z,63.00
2022-08-05T17:34:38.475Z,1.00
2022-08-05T17:37:32.141Z,99.90
2022-08-05T17:39:55.753Z,99.90
2022-08-05T17:42:27.006Z,99.90
2022-08-05T17:44:56.765Z,99.90
2022-08-05T17:47:23.685Z,99.90
2022-08-05T17:50:00.350Z,99.90
2022-08-05T17:52:31.734Z,1.00
2022-08-05T17:54:58.426Z,99.90
2022-08-05T17:57:25.107Z,99.90
2022-08-05T18:00:03.425Z,99.90
2022-08-05T18:02:31.988Z,99.90
2022-08-05T18:05:03.709Z,29.00
2022-08-05T18:07:41.406Z,99.90
2022-08-05T18:10:10.928Z,99.90
2022-08-05T18:12:38.667Z,99.90
2022-08-05T18:15:06.190Z,99.90
2022-08-05T18:18:01.553Z,86.70
2022-08-05T18:20:47.002Z,99.90
2022-08-05T18:23:23.110Z,99.90
2022-08-05T18:25:57.871Z,99.90
2022-08-05T18:28:28.435Z,99.90
2022-08-05T18:30:57.660Z,99.90
2022-08-05T18:33:24.541Z,99.90
2022-08-05T18:36:03.805Z,99.90
2022-08-05T18:38:34.978Z,99.90
2022-08-05T18:41:53.859Z,99.90
2022-08-05T18:43:49.965Z,99.90
2022-08-05T18:46:20.081Z,99.90
2022-08-05T18:48:51.950Z,99.90
2022-08-05T18:52:05.668Z,99.90
2022-08-05T18:54:31.303Z,99.90
2022-08-05T18:57:01.888Z,99.90
2022-08-05T18:59:43.352Z,99.90
2022-08-05T19:02:26.766Z,99.90
2022-08-05T19:05:02.982Z,14.20
2022-08-05T19:07:46.498Z,99.90
2022-08-05T19:10:17.490Z,99.90
2022-08-05T19:12:46.144Z,99.90
2022-08-05T19:15:57.602Z,99.90
2022-08-05T19:18:09.064Z,99.90
2022-08-05T19:20:41.408Z,99.90
2022-08-05T19:33:16.679Z,99.90
2022-08-05T19:35:56.709Z,99.90
2022-08-05T19:38:24.585Z,99.90
2022-08-05T19:40:53.611Z,99.90
2022-08-05T19:43:31.318Z,99.90
2022-08-05T19:46:27.286Z,99.90
2022-08-05T19:48:53.896Z,99.90
2022-08-05T19:52:05.598Z,99.90
2022-08-05T19:54:25.628Z,99.90
2022-08-05T19:56:57.298Z,99.90
2022-08-05T19:59:56.372Z,99.90
2022-08-05T20:02:11.016Z,99.90
2022-08-05T20:04:37.776Z,99.90
2022-08-05T20:07:13.208Z,99.90
2022-08-05T20:09:53.669Z,99.90
2022-08-05T20:12:23.513Z,99.90
2022-08-05T20:14:52.500Z,99.90
2022-08-05T20:17:23.193Z,99.90
2022-08-05T20:19:51.021Z,99.90
2022-08-05T20:22:25.007Z,99.90
2022-08-05T20:24:54.679Z,99.90
2022-08-05T20:27:26.993Z,99.90
2022-08-05T20:29:58.168Z,99.90
2022-08-05T20:32:26.088Z,99.90
2022-08-05T20:34:52.896Z,99.90
2022-08-05T20:38:04.789Z,99.90
2022-08-05T20:40:07.013Z,99.90
2022-08-05T20:42:34.719Z,99.90
2022-08-05T20:45:05.464Z,99.90
2022-08-05T20:47:32.690Z,99.90
2022-08-05T20:50:02.201Z,99.90
2022-08-05T20:52:29.499Z,99.90
2022-08-05T20:55:55.377Z,99.90
2022-08-05T20:57:44.816Z,99.90
2022-08-05T21:00:35.078Z,99.90
2022-08-05T21:03:06.273Z,99.90
2022-08-05T21:05:48.113Z,99.90
2022-08-05T21:08:26.883Z,99.90
2022-08-05T21:11:11.906Z,99.90
2022-08-05T21:13:55.624Z,99.90
2022-08-05T21:16:29.556Z,99.90
2022-08-05T21:19:00.387Z,99.90
2022-08-05T21:21:39.206Z,99.90
2022-08-05T21:24:12.902Z,99.90
2022-08-05T21:26:41.200Z,99.90
2022-08-05T21:29:09.980Z,99.90
2022-08-05T21:31:41.617Z,99.90
2022-08-05T21:34:10.643Z,99.90
2022-08-05T21:36:38.271Z,99.90
2022-08-05T21:39:05.106Z,99.90
2022-08-05T21:41:35.490Z,99.90
2022-08-05T21:44:04.233Z,99.90
2022-08-05T21:46:32.138Z,99.90
2022-08-05T21:49:01.941Z,99.90
2022-08-05T21:52:22.826Z,99.90
2022-08-05T21:54:15.371Z,99.90
2022-08-05T21:56:44.675Z,99.90
2022-08-05T21:59:24.392Z,99.90
2022-08-05T22:01:54.512Z,99.90
2022-08-05T22:04:25.450Z,99.90
2022-08-05T22:06:52.617Z,99.90
2022-08-05T22:09:20.995Z,99.90
2022-08-05T22:11:48.406Z,99.90
2022-08-05T22:14:34.438Z,99.90
2022-08-05T22:17:04.957Z,99.90
2022-08-05T22:20:03.463Z,99.90
2022-08-05T22:22:27.209Z,99.90
2022-08-05T22:25:21.624Z,99.90
2022-08-05T22:28:08.219Z,99.90
2022-08-05T22:30:43.954Z,99.90
2022-08-05T22:33:55.479Z,99.90
2022-08-05T22:36:10.748Z,99.90
2022-08-05T22:38:42.742Z,99.90
2022-08-05T22:41:13.044Z,99.90
2022-08-05T22:43:41.963Z,99.90
2022-08-05T22:46:13.792Z,99.90
2022-08-05T22:48:50.713Z,99.90
2022-08-05T22:51:22.797Z,99.90
2022-08-05T22:53:50.724Z,99.90
2022-08-05T22:56:17.988Z,99.90
2022-08-05T22:58:57.880Z,99.90
2022-08-05T23:02:03.913Z,99.90
2022-08-05T23:04:13.636Z,99.90
2022-08-05T23:06:41.299Z,99.90
2022-08-05T23:09:26.799Z,99.90
2022-08-05T23:11:54.949Z,99.90
2022-08-05T23:14:22.615Z,99.90
2022-08-05T23:17:18.721Z,99.90
2022-08-05T23:19:56.245Z,99.90
2022-08-05T23:22:27.175Z,99.90
2022-08-05T23:24:54.874Z,99.90
2022-08-05T23:27:22.684Z,99.90
2022-08-05T23:29:50.801Z,99.90
2022-08-05T23:32:22.889Z,99.90
2022-08-05T23:34:49.886Z,99.90
2022-08-05T23:37:17.786Z,99.90
2022-08-05T23:39:53.667Z,99.90
2022-08-05T23:42:29.349Z,99.90
2022-08-05T23:44:57.250Z,99.90
2022-08-05T23:47:24.972Z,99.90
2022-08-05T23:49:55.781Z,99.90
2022-08-05T23:52:26.578Z,99.90
2022-08-05T23:54:58.277Z,99.90
2022-08-05T23:57:28.285Z,99.90
